sensor_id;sensor_type;location;lat;lon;timestamp;pressure;altitude;pressure_sealevel;temperature;humidity
20156;BME280;10238;49.556;10.956;2023-07-13T00:01:39;98045.44;;;21.89;85.13
20156;BME280;10238;49.556;10.956;2023-07-13T00:04:27;98042.13;;;21.87;86.28
20156;BME280;10238;49.556;10.956;2023-07-13T00:07:19;98031.75;;;21.84;84.74
20156;BME280;10238;49.556;10.956;2023-07-13T00:10:08;98025.28;;;21.85;86.36
20156;BME280;10238;49.556;10.956;2023-07-13T00:12:56;98029.66;;;21.86;84.65
20156;BME280;10238;49.556;10.956;2023-07-13T00:15:44;98018.22;;;21.84;84.21
20156;BME280;10238;49.556;10.956;2023-07-13T00:18:33;98010.56;;;21.81;84.50
20156;BME280;10238;49.556;10.956;2023-07-13T00:21:21;98009.41;;;21.77;85.25
20156;BME280;10238;49.556;10.956;2023-07-13T00:24:13;98002.78;;;21.73;85.22
20156;BME280;10238;49.556;10.956;2023-07-13T00:27:02;98000.19;;;21.66;84.45
20156;BME280;10238;49.556;10.956;2023-07-13T00:29:50;98006.06;;;21.63;85.20
20156;BME280;10238;49.556;10.956;2023-07-13T00:32:38;98005.94;;;21.58;85.96
20156;BME280;10238;49.556;10.956;2023-07-13T00:35:30;98018.50;;;21.53;86.45
20156;BME280;10238;49.556;10.956;2023-07-13T00:38:18;98017.69;;;21.52;85.79
20156;BME280;10238;49.556;10.956;2023-07-13T00:41:07;98011.53;;;21.45;85.84
20156;BME280;10238;49.556;10.956;2023-07-13T00:43:54;98024.50;;;21.43;85.37
20156;BME280;10238;49.556;10.956;2023-07-13T00:46:44;98020.00;;;21.37;85.85
20156;BME280;10238;49.556;10.956;2023-07-13T00:49:35;98028.56;;;21.34;86.41
20156;BME280;10238;49.556;10.956;2023-07-13T00:52:26;98025.16;;;21.27;86.36
20156;BME280;10238;49.556;10.956;2023-07-13T00:55:15;98036.88;;;21.21;86.42
20156;BME280;10238;49.556;10.956;2023-07-13T00:58:05;98037.34;;;21.18;87.38
20156;BME280;10238;49.556;10.956;2023-07-13T01:00:54;98042.00;;;21.11;87.74
20156;BME280;10238;49.556;10.956;2023-07-13T01:03:42;98042.91;;;21.05;87.47
20156;BME280;10238;49.556;10.956;2023-07-13T01:06:30;98040.06;;;21.00;87.65
20156;BME280;10238;49.556;10.956;2023-07-13T01:09:20;98040.13;;;20.93;88.38
20156;BME280;10238;49.556;10.956;2023-07-13T01:12:08;98045.63;;;20.87;88.42
20156;BME280;10238;49.556;10.956;2023-07-13T01:14:58;98038.41;;;20.81;88.57
20156;BME280;10238;49.556;10.956;2023-07-13T01:17:46;98038.72;;;20.73;88.46
20156;BME280;10238;49.556;10.956;2023-07-13T01:20:35;98034.00;;;20.68;88.48
20156;BME280;10238;49.556;10.956;2023-07-13T01:23:26;98034.69;;;20.64;88.79
20156;BME280;10238;49.556;10.956;2023-07-13T01:26:15;98038.91;;;20.60;89.01
20156;BME280;10238;49.556;10.956;2023-07-13T01:29:02;98044.34;;;20.53;89.01
20156;BME280;10238;49.556;10.956;2023-07-13T01:31:50;98047.28;;;20.52;89.33
20156;BME280;10238;49.556;10.956;2023-07-13T01:34:38;98048.19;;;20.46;89.65
20156;BME280;10238;49.556;10.956;2023-07-13T01:37:29;98031.63;;;20.42;89.72
20156;BME280;10238;49.556;10.956;2023-07-13T01:40:21;98037.00;;;20.42;90.53
20156;BME280;10238;49.556;10.956;2023-07-13T01:43:10;98035.44;;;20.35;90.08
20156;BME280;10238;49.556;10.956;2023-07-13T01:45:58;98032.13;;;20.33;89.98
20156;BME280;10238;49.556;10.956;2023-07-13T01:49:02;98042.16;;;20.26;91.62
20156;BME280;10238;49.556;10.956;2023-07-13T01:51:50;98040.59;;;20.18;91.22
20156;BME280;10238;49.556;10.956;2023-07-13T01:54:38;98044.56;;;20.16;91.47
20156;BME280;10238;49.556;10.956;2023-07-13T01:57:26;98042.31;;;20.13;91.73
20156;BME280;10238;49.556;10.956;2023-07-13T02:00:15;98039.78;;;20.11;91.25
20156;BME280;10238;49.556;10.956;2023-07-13T02:03:03;98039.41;;;20.08;91.49
20156;BME280;10238;49.556;10.956;2023-07-13T02:05:51;98036.94;;;20.06;92.15
20156;BME280;10238;49.556;10.956;2023-07-13T02:08:41;98036.16;;;19.99;93.18
20156;BME280;10238;49.556;10.956;2023-07-13T02:11:29;98046.81;;;19.94;93.19
20156;BME280;10238;49.556;10.956;2023-07-13T02:14:20;98054.50;;;19.91;93.76
20156;BME280;10238;49.556;10.956;2023-07-13T02:17:10;98046.69;;;19.83;93.89
20156;BME280;10238;49.556;10.956;2023-07-13T02:19:58;98056.28;;;19.79;94.35
20156;BME280;10238;49.556;10.956;2023-07-13T02:22:45;98054.63;;;19.78;95.03
20156;BME280;10238;49.556;10.956;2023-07-13T02:25:33;98048.47;;;19.71;95.52
20156;BME280;10238;49.556;10.956;2023-07-13T02:28:21;98050.53;;;19.69;96.41
20156;BME280;10238;49.556;10.956;2023-07-13T02:31:13;98049.34;;;19.65;96.63
20156;BME280;10238;49.556;10.956;2023-07-13T02:34:03;98040.63;;;19.63;95.11
20156;BME280;10238;49.556;10.956;2023-07-13T02:36:51;98051.84;;;19.60;95.60
20156;BME280;10238;49.556;10.956;2023-07-13T02:39:38;98056.44;;;19.59;95.50
20156;BME280;10238;49.556;10.956;2023-07-13T02:42:27;98059.78;;;19.55;95.48
20156;BME280;10238;49.556;10.956;2023-07-13T02:45:15;98057.97;;;19.49;96.55
20156;BME280;10238;49.556;10.956;2023-07-13T02:48:05;98061.97;;;19.40;96.81
20156;BME280;10238;49.556;10.956;2023-07-13T02:50:53;98064.69;;;19.33;98.03
20156;BME280;10238;49.556;10.956;2023-07-13T02:53:42;98067.81;;;19.30;97.63
20156;BME280;10238;49.556;10.956;2023-07-13T02:56:32;98077.38;;;19.26;98.05
20156;BME280;10238;49.556;10.956;2023-07-13T02:59:20;98078.41;;;19.18;98.97
20156;BME280;10238;49.556;10.956;2023-07-13T03:02:08;98087.00;;;19.09;99.38
20156;BME280;10238;49.556;10.956;2023-07-13T03:04:58;98085.34;;;19.01;100.00
20156;BME280;10238;49.556;10.956;2023-07-13T03:07:46;98089.09;;;19.00;100.00
20156;BME280;10238;49.556;10.956;2023-07-13T03:10:34;98083.72;;;18.94;100.00
20156;BME280;10238;49.556;10.956;2023-07-13T03:13:22;98085.00;;;18.91;100.00
20156;BME280;10238;49.556;10.956;2023-07-13T03:16:10;98094.13;;;18.90;100.00
20156;BME280;10238;49.556;10.956;2023-07-13T03:19:02;98098.25;;;18.86;100.00
20156;BME280;10238;49.556;10.956;2023-07-13T03:21:51;98105.75;;;18.78;100.00
20156;BME280;10238;49.556;10.956;2023-07-13T03:24:39;98102.88;;;18.73;100.00
20156;BME280;10238;49.556;10.956;2023-07-13T03:27:28;98116.16;;;18.68;100.00
20156;BME280;10238;49.556;10.956;2023-07-13T03:30:16;98117.81;;;18.62;100.00
20156;BME280;10238;49.556;10.956;2023-07-13T03:33:03;98136.88;;;18.54;100.00
20156;BME280;10238;49.556;10.956;2023-07-13T03:35:54;98128.63;;;18.49;100.00
20156;BME280;10238;49.556;10.956;2023-07-13T03:38:42;98144.78;;;18.49;100.00
20156;BME280;10238;49.556;10.956;2023-07-13T03:41:30;98137.34;;;18.45;100.00
20156;BME280;10238;49.556;10.956;2023-07-13T03:44:19;98149.31;;;18.42;100.00
20156;BME280;10238;49.556;10.956;2023-07-13T03:47:07;98146.84;;;18.41;100.00
20156;BME280;10238;49.556;10.956;2023-07-13T03:49:55;98149.97;;;18.38;100.00
20156;BME280;10238;49.556;10.956;2023-07-13T03:52:43;98161.75;;;18.37;100.00
20156;BME280;10238;49.556;10.956;2023-07-13T03:55:32;98153.25;;;18.33;100.00
20156;BME280;10238;49.556;10.956;2023-07-13T03:58:29;98155.53;;;18.30;100.00
20156;BME280;10238;49.556;10.956;2023-07-13T04:01:20;98161.31;;;18.27;100.00
20156;BME280;10238;49.556;10.956;2023-07-13T04:04:08;98164.84;;;18.27;100.00
20156;BME280;10238;49.556;10.956;2023-07-13T04:06:56;98169.19;;;18.28;100.00
20156;BME280;10238;49.556;10.956;2023-07-13T04:09:44;98172.50;;;18.30;100.00
20156;BME280;10238;49.556;10.956;2023-07-13T04:12:33;98174.16;;;18.31;100.00
20156;BME280;10238;49.556;10.956;2023-07-13T04:15:21;98178.31;;;18.27;100.00
20156;BME280;10238;49.556;10.956;2023-07-13T04:18:08;98182.00;;;18.26;100.00
20156;BME280;10238;49.556;10.956;2023-07-13T04:20:56;98179.97;;;18.22;100.00
20156;BME280;10238;49.556;10.956;2023-07-13T04:23:43;98185.56;;;18.20;100.00
20156;BME280;10238;49.556;10.956;2023-07-13T04:26:31;98168.78;;;18.18;100.00
20156;BME280;10238;49.556;10.956;2023-07-13T04:29:24;98170.44;;;18.19;100.00
20156;BME280;10238;49.556;10.956;2023-07-13T04:32:12;98182.03;;;18.20;100.00
20156;BME280;10238;49.556;10.956;2023-07-13T04:35:00;98183.28;;;18.17;100.00
20156;BME280;10238;49.556;10.956;2023-07-13T04:37:49;98185.34;;;18.15;100.00
20156;BME280;10238;49.556;10.956;2023-07-13T04:40:37;98187.41;;;18.13;100.00
20156;BME280;10238;49.556;10.956;2023-07-13T04:43:26;98191.13;;;18.12;100.00
20156;BME280;10238;49.556;10.956;2023-07-13T04:46:17;98196.09;;;18.15;100.00
20156;BME280;10238;49.556;10.956;2023-07-13T04:49:05;98188.47;;;18.19;100.00
20156;BME280;10238;49.556;10.956;2023-07-13T04:51:53;98194.47;;;18.27;100.00
20156;BME280;10238;49.556;10.956;2023-07-13T04:54:41;98206.03;;;18.34;100.00
20156;BME280;10238;49.556;10.956;2023-07-13T04:57:29;98201.13;;;18.38;100.00
20156;BME280;10238;49.556;10.956;2023-07-13T05:00:17;98207.94;;;18.40;100.00
20156;BME280;10238;49.556;10.956;2023-07-13T05:03:05;98203.59;;;18.46;100.00
20156;BME280;10238;49.556;10.956;2023-07-13T05:05:58;98212.09;;;18.49;99.67
20156;BME280;10238;49.556;10.956;2023-07-13T05:08:46;98211.66;;;18.52;99.33
20156;BME280;10238;49.556;10.956;2023-07-13T05:11:34;98220.97;;;18.56;99.92
20156;BME280;10238;49.556;10.956;2023-07-13T05:14:22;98212.88;;;18.63;98.64
20156;BME280;10238;49.556;10.956;2023-07-13T05:17:10;98215.56;;;18.69;99.63
20156;BME280;10238;49.556;10.956;2023-07-13T05:19:59;98214.13;;;18.80;98.52
20156;BME280;10238;49.556;10.956;2023-07-13T05:22:47;98211.19;;;18.88;98.13
20156;BME280;10238;49.556;10.956;2023-07-13T05:25:35;98222.56;;;18.96;97.35
20156;BME280;10238;49.556;10.956;2023-07-13T05:28:23;98209.72;;;19.05;96.02
20156;BME280;10238;49.556;10.956;2023-07-13T05:31:10;98216.50;;;19.14;94.45
20156;BME280;10238;49.556;10.956;2023-07-13T05:33:59;98210.69;;;19.23;93.81
20156;BME280;10238;49.556;10.956;2023-07-13T05:36:48;98212.34;;;19.31;92.14
20156;BME280;10238;49.556;10.956;2023-07-13T05:39:36;98218.75;;;19.37;91.96
20156;BME280;10238;49.556;10.956;2023-07-13T05:42:24;98217.28;;;19.41;92.10
20156;BME280;10238;49.556;10.956;2023-07-13T05:45:11;98228.84;;;19.48;90.91
20156;BME280;10238;49.556;10.956;2023-07-13T05:47:59;98229.06;;;19.53;89.62
20156;BME280;10238;49.556;10.956;2023-07-13T05:50:47;98228.63;;;19.56;90.52
20156;BME280;10238;49.556;10.956;2023-07-13T05:53:37;98230.47;;;19.62;89.40
20156;BME280;10238;49.556;10.956;2023-07-13T05:56:25;98232.75;;;19.65;88.79
20156;BME280;10238;49.556;10.956;2023-07-13T05:59:13;98235.59;;;19.70;88.34
20156;BME280;10238;49.556;10.956;2023-07-13T06:02:01;98235.78;;;19.75;89.40
20156;BME280;10238;49.556;10.956;2023-07-13T06:04:49;98227.44;;;19.83;89.07
20156;BME280;10238;49.556;10.956;2023-07-13T06:07:38;98241.34;;;19.86;88.62
20156;BME280;10238;49.556;10.956;2023-07-13T06:10:28;98230.53;;;19.86;88.69
20156;BME280;10238;49.556;10.956;2023-07-13T06:13:16;98241.91;;;19.95;88.52
20156;BME280;10238;49.556;10.956;2023-07-13T06:16:06;98245.56;;;20.07;88.60
20156;BME280;10238;49.556;10.956;2023-07-13T06:18:55;98246.94;;;20.22;88.71
20156;BME280;10238;49.556;10.956;2023-07-13T06:21:42;98244.75;;;20.37;90.40
20156;BME280;10238;49.556;10.956;2023-07-13T06:24:30;98241.75;;;20.52;88.36
20156;BME280;10238;49.556;10.956;2023-07-13T06:27:20;98236.97;;;20.72;89.44
20156;BME280;10238;49.556;10.956;2023-07-13T06:30:09;98247.00;;;20.96;85.20
20156;BME280;10238;49.556;10.956;2023-07-13T06:32:57;98240.34;;;21.16;83.94
20156;BME280;10238;49.556;10.956;2023-07-13T06:35:44;98242.22;;;21.34;82.12
20156;BME280;10238;49.556;10.956;2023-07-13T06:38:32;98247.47;;;21.47;80.92
20156;BME280;10238;49.556;10.956;2023-07-13T06:41:20;98243.19;;;21.58;80.02
20156;BME280;10238;49.556;10.956;2023-07-13T06:44:10;98254.25;;;21.74;78.73
20156;BME280;10238;49.556;10.956;2023-07-13T06:46:58;98256.19;;;21.85;78.17
20156;BME280;10238;49.556;10.956;2023-07-13T06:49:46;98258.59;;;21.93;77.38
20156;BME280;10238;49.556;10.956;2023-07-13T06:52:34;98261.19;;;22.00;75.82
20156;BME280;10238;49.556;10.956;2023-07-13T06:55:22;98263.00;;;22.17;76.58
20156;BME280;10238;49.556;10.956;2023-07-13T06:58:10;98271.66;;;22.37;75.35
20156;BME280;10238;49.556;10.956;2023-07-13T07:00:59;98273.88;;;22.58;73.17
20156;BME280;10238;49.556;10.956;2023-07-13T07:03:47;98269.41;;;22.75;72.67
20156;BME280;10238;49.556;10.956;2023-07-13T07:06:34;98272.75;;;23.00;70.58
20156;BME280;10238;49.556;10.956;2023-07-13T07:09:23;98265.31;;;23.19;67.83
20156;BME280;10238;49.556;10.956;2023-07-13T07:12:15;98272.75;;;23.23;67.13
20156;BME280;10238;49.556;10.956;2023-07-13T07:15:04;98268.88;;;23.31;67.19
20156;BME280;10238;49.556;10.956;2023-07-13T07:17:53;98282.53;;;23.48;66.50
20156;BME280;10238;49.556;10.956;2023-07-13T07:20:42;98279.09;;;23.64;66.41
20156;BME280;10238;49.556;10.956;2023-07-13T07:23:29;98272.44;;;23.83;64.97
20156;BME280;10238;49.556;10.956;2023-07-13T07:26:17;98285.88;;;24.01;64.37
20156;BME280;10238;49.556;10.956;2023-07-13T07:29:05;98296.44;;;24.14;62.46
20156;BME280;10238;49.556;10.956;2023-07-13T07:31:55;98286.03;;;24.22;61.76
20156;BME280;10238;49.556;10.956;2023-07-13T07:34:52;98290.38;;;24.23;60.40
20156;BME280;10238;49.556;10.956;2023-07-13T07:37:40;98290.72;;;24.27;60.71
20156;BME280;10238;49.556;10.956;2023-07-13T07:40:31;98294.72;;;24.36;59.96
20156;BME280;10238;49.556;10.956;2023-07-13T07:43:22;98284.19;;;24.56;59.56
20156;BME280;10238;49.556;10.956;2023-07-13T07:46:09;98297.91;;;24.77;59.28
20156;BME280;10238;49.556;10.956;2023-07-13T07:48:57;98296.44;;;25.03;58.38
20156;BME280;10238;49.556;10.956;2023-07-13T07:51:46;98305.16;;;25.21;57.91
20156;BME280;10238;49.556;10.956;2023-07-13T07:54:34;98301.97;;;25.41;55.85
20156;BME280;10238;49.556;10.956;2023-07-13T07:57:25;98308.09;;;25.53;55.83
20156;BME280;10238;49.556;10.956;2023-07-13T08:00:16;98303.88;;;25.62;55.41
20156;BME280;10238;49.556;10.956;2023-07-13T08:03:07;98304.72;;;25.84;53.92
20156;BME280;10238;49.556;10.956;2023-07-13T08:05:58;98308.66;;;25.93;53.59
20156;BME280;10238;49.556;10.956;2023-07-13T08:09:07;98320.31;;;25.89;53.70
20156;BME280;10238;49.556;10.956;2023-07-13T08:11:54;98315.09;;;25.87;53.76
20156;BME280;10238;49.556;10.956;2023-07-13T08:14:49;98312.09;;;26.05;53.10
20156;BME280;10238;49.556;10.956;2023-07-13T08:17:39;98306.38;;;26.28;52.21
20156;BME280;10238;49.556;10.956;2023-07-13T08:20:27;98316.84;;;26.36;50.42
20156;BME280;10238;49.556;10.956;2023-07-13T08:23:14;98323.78;;;26.49;50.09
20156;BME280;10238;49.556;10.956;2023-07-13T08:26:04;98321.72;;;26.61;49.42
20156;BME280;10238;49.556;10.956;2023-07-13T08:28:52;98327.84;;;26.73;48.50
20156;BME280;10238;49.556;10.956;2023-07-13T08:31:40;98320.81;;;26.77;47.46
20156;BME280;10238;49.556;10.956;2023-07-13T08:34:27;98322.53;;;26.88;47.95
20156;BME280;10238;49.556;10.956;2023-07-13T08:37:15;98324.06;;;27.05;47.72
20156;BME280;10238;49.556;10.956;2023-07-13T08:40:07;98318.78;;;27.25;47.24
20156;BME280;10238;49.556;10.956;2023-07-13T08:42:59;98318.16;;;27.18;46.98
20156;BME280;10238;49.556;10.956;2023-07-13T08:45:51;98315.09;;;27.42;46.76
20156;BME280;10238;49.556;10.956;2023-07-13T08:48:45;98308.13;;;27.66;45.57
20156;BME280;10238;49.556;10.956;2023-07-13T08:51:43;98314.69;;;27.70;45.23
20156;BME280;10238;49.556;10.956;2023-07-13T08:54:36;98316.19;;;27.87;44.62
20156;BME280;10238;49.556;10.956;2023-07-13T08:57:33;98314.09;;;28.09;43.54
20156;BME280;10238;49.556;10.956;2023-07-13T09:00:33;98315.50;;;28.17;42.05
20156;BME280;10238;49.556;10.956;2023-07-13T09:03:26;98314.75;;;28.36;42.30
20156;BME280;10238;49.556;10.956;2023-07-13T09:06:20;98317.31;;;28.63;40.90
20156;BME280;10238;49.556;10.956;2023-07-13T09:09:22;98316.19;;;28.69;40.29
20156;BME280;10238;49.556;10.956;2023-07-13T09:12:17;98324.41;;;28.69;40.13
20156;BME280;10238;49.556;10.956;2023-07-13T09:15:28;98319.22;;;28.72;39.76
20156;BME280;10238;49.556;10.956;2023-07-13T09:18:23;98324.44;;;28.79;39.46
20156;BME280;10238;49.556;10.956;2023-07-13T09:21:15;98322.25;;;28.91;38.25
20156;BME280;10238;49.556;10.956;2023-07-13T09:24:27;98319.22;;;29.02;39.24
20156;BME280;10238;49.556;10.956;2023-07-13T09:27:19;98318.47;;;29.17;38.01
20156;BME280;10238;49.556;10.956;2023-07-13T09:30:23;98329.97;;;29.24;38.60
20156;BME280;10238;49.556;10.956;2023-07-13T09:33:14;98336.53;;;29.43;38.05
20156;BME280;10238;49.556;10.956;2023-07-13T09:36:05;98328.00;;;29.55;36.62
20156;BME280;10238;49.556;10.956;2023-07-13T09:39:09;98334.06;;;29.62;36.85
20156;BME280;10238;49.556;10.956;2023-07-13T09:42:07;98325.28;;;29.65;37.29
20156;BME280;10238;49.556;10.956;2023-07-13T09:45:01;98328.81;;;29.75;36.95
20156;BME280;10238;49.556;10.956;2023-07-13T09:47:59;98335.94;;;29.81;37.33
20156;BME280;10238;49.556;10.956;2023-07-13T09:50:48;98329.03;;;29.94;37.92
20156;BME280;10238;49.556;10.956;2023-07-13T09:53:37;98317.50;;;30.02;37.55
20156;BME280;10238;49.556;10.956;2023-07-13T09:56:27;98320.47;;;30.10;37.29
20156;BME280;10238;49.556;10.956;2023-07-13T09:59:21;98318.56;;;30.06;37.36
20156;BME280;10238;49.556;10.956;2023-07-13T10:02:24;98322.91;;;30.17;38.09
20156;BME280;10238;49.556;10.956;2023-07-13T10:05:14;98319.63;;;30.25;37.31
20156;BME280;10238;49.556;10.956;2023-07-13T10:08:05;98313.78;;;30.41;36.92
20156;BME280;10238;49.556;10.956;2023-07-13T10:10:58;98320.06;;;30.47;36.12
20156;BME280;10238;49.556;10.956;2023-07-13T10:13:55;98323.56;;;30.52;36.66
20156;BME280;10238;49.556;10.956;2023-07-13T10:16:45;98320.19;;;30.65;37.14
20156;BME280;10238;49.556;10.956;2023-07-13T10:19:35;98314.00;;;30.93;36.36
20156;BME280;10238;49.556;10.956;2023-07-13T10:22:27;98314.56;;;30.90;35.97
20156;BME280;10238;49.556;10.956;2023-07-13T10:25:21;98317.63;;;31.17;35.73
20156;BME280;10238;49.556;10.956;2023-07-13T10:28:19;98315.53;;;31.04;35.24
20156;BME280;10238;49.556;10.956;2023-07-13T10:31:14;98307.47;;;30.84;37.04
20156;BME280;10238;49.556;10.956;2023-07-13T10:34:03;98324.09;;;31.37;37.02
20156;BME280;10238;49.556;10.956;2023-07-13T10:36:52;98313.28;;;31.74;35.59
20156;BME280;10238;49.556;10.956;2023-07-13T10:39:40;98324.63;;;31.67;34.87
20156;BME280;10238;49.556;10.956;2023-07-13T10:42:33;98320.50;;;31.65;34.22
20156;BME280;10238;49.556;10.956;2023-07-13T10:45:23;98326.16;;;31.78;34.64
20156;BME280;10238;49.556;10.956;2023-07-13T10:48:13;98329.56;;;31.94;35.03
20156;BME280;10238;49.556;10.956;2023-07-13T10:51:05;98326.97;;;31.79;34.93
20156;BME280;10238;49.556;10.956;2023-07-13T10:54:11;98323.38;;;31.83;36.57
20156;BME280;10238;49.556;10.956;2023-07-13T10:57:18;98325.56;;;31.53;34.47
20156;BME280;10238;49.556;10.956;2023-07-13T11:00:17;98322.22;;;31.32;35.24
20156;BME280;10238;49.556;10.956;2023-07-13T11:03:14;98326.09;;;31.60;34.81
20156;BME280;10238;49.556;10.956;2023-07-13T11:06:12;98314.91;;;31.75;34.07
20156;BME280;10238;49.556;10.956;2023-07-13T11:09:24;98314.22;;;31.64;35.40
20156;BME280;10238;49.556;10.956;2023-07-13T11:15:47;98316.97;;;31.36;35.44
20156;BME280;10238;49.556;10.956;2023-07-13T11:18:35;98318.59;;;31.37;35.58
20156;BME280;10238;49.556;10.956;2023-07-13T11:21:26;98316.16;;;31.59;34.97
20156;BME280;10238;49.556;10.956;2023-07-13T11:24:18;98303.31;;;31.78;33.53
20156;BME280;10238;49.556;10.956;2023-07-13T11:27:33;98309.28;;;31.90;35.72
20156;BME280;10238;49.556;10.956;2023-07-13T11:30:30;98308.72;;;31.88;34.26
20156;BME280;10238;49.556;10.956;2023-07-13T11:33:22;98308.03;;;31.77;34.63
20156;BME280;10238;49.556;10.956;2023-07-13T11:36:14;98311.19;;;31.66;34.69
20156;BME280;10238;49.556;10.956;2023-07-13T11:39:10;98313.63;;;31.39;35.27
20156;BME280;10238;49.556;10.956;2023-07-13T11:42:02;98311.72;;;31.39;34.42
20156;BME280;10238;49.556;10.956;2023-07-13T11:44:52;98311.53;;;31.26;34.29
20156;BME280;10238;49.556;10.956;2023-07-13T11:47:56;98314.00;;;30.93;34.59
20156;BME280;10238;49.556;10.956;2023-07-13T11:50:53;98311.34;;;30.78;35.01
20156;BME280;10238;49.556;10.956;2023-07-13T11:53:46;98304.81;;;30.74;35.22
20156;BME280;10238;49.556;10.956;2023-07-13T11:56:35;98306.97;;;30.72;35.94
20156;BME280;10238;49.556;10.956;2023-07-13T11:59:24;98306.47;;;30.65;35.96
20156;BME280;10238;49.556;10.956;2023-07-13T12:02:16;98304.38;;;30.52;36.63
20156;BME280;10238;49.556;10.956;2023-07-13T12:05:06;98314.34;;;30.38;36.30
20156;BME280;10238;49.556;10.956;2023-07-13T12:08:00;98313.28;;;30.24;36.15
20156;BME280;10238;49.556;10.956;2023-07-13T12:10:59;98311.63;;;30.28;36.31
20156;BME280;10238;49.556;10.956;2023-07-13T12:13:47;98302.44;;;30.53;37.11
20156;BME280;10238;49.556;10.956;2023-07-13T12:16:35;98305.63;;;30.70;36.48
20156;BME280;10238;49.556;10.956;2023-07-13T12:19:27;98301.97;;;30.84;35.64
20156;BME280;10238;49.556;10.956;2023-07-13T12:22:17;98301.72;;;30.81;36.25
20156;BME280;10238;49.556;10.956;2023-07-13T12:25:11;98300.50;;;30.58;36.94
20156;BME280;10238;49.556;10.956;2023-07-13T12:28:00;98303.31;;;30.48;37.43
20156;BME280;10238;49.556;10.956;2023-07-13T12:31:18;98308.09;;;30.66;37.99
20156;BME280;10238;49.556;10.956;2023-07-13T12:34:15;98309.00;;;31.00;37.49
20156;BME280;10238;49.556;10.956;2023-07-13T12:37:08;98317.41;;;31.14;37.82
20156;BME280;10238;49.556;10.956;2023-07-13T12:39:58;98317.72;;;31.07;36.54
20156;BME280;10238;49.556;10.956;2023-07-13T12:42:48;98313.63;;;31.05;36.99
20156;BME280;10238;49.556;10.956;2023-07-13T12:45:37;98307.66;;;30.98;35.83
20156;BME280;10238;49.556;10.956;2023-07-13T12:48:25;98309.16;;;30.80;35.96
20156;BME280;10238;49.556;10.956;2023-07-13T12:51:27;98312.59;;;30.96;36.64
20156;BME280;10238;49.556;10.956;2023-07-13T12:54:17;98308.81;;;31.20;36.00
20156;BME280;10238;49.556;10.956;2023-07-13T12:57:15;98301.31;;;31.36;36.30
20156;BME280;10238;49.556;10.956;2023-07-13T13:00:22;98302.50;;;31.54;35.66
20156;BME280;10238;49.556;10.956;2023-07-13T13:03:20;98290.63;;;31.58;35.66
20156;BME280;10238;49.556;10.956;2023-07-13T13:06:22;98306.50;;;31.38;36.29
20156;BME280;10238;49.556;10.956;2023-07-13T13:09:12;98302.44;;;31.59;36.00
20156;BME280;10238;49.556;10.956;2023-07-13T13:12:01;98296.16;;;31.53;35.52
20156;BME280;10238;49.556;10.956;2023-07-13T13:14:49;98296.66;;;31.32;35.53
20156;BME280;10238;49.556;10.956;2023-07-13T13:17:41;98300.81;;;30.95;35.78
20156;BME280;10238;49.556;10.956;2023-07-13T13:20:28;98298.19;;;30.75;35.67
20156;BME280;10238;49.556;10.956;2023-07-13T13:23:19;98291.06;;;30.74;35.81
20156;BME280;10238;49.556;10.956;2023-07-13T13:26:34;98303.88;;;31.17;35.49
20156;BME280;10238;49.556;10.956;2023-07-13T13:29:34;98297.28;;;31.81;34.92
20156;BME280;10238;49.556;10.956;2023-07-13T13:32:23;98288.34;;;31.65;34.66
20156;BME280;10238;49.556;10.956;2023-07-13T13:35:16;98295.31;;;31.58;34.97
20156;BME280;10238;49.556;10.956;2023-07-13T13:38:10;98291.84;;;31.47;35.40
20156;BME280;10238;49.556;10.956;2023-07-13T13:40:58;98287.41;;;31.75;34.56
20156;BME280;10238;49.556;10.956;2023-07-13T13:43:46;98279.56;;;31.92;33.82
20156;BME280;10238;49.556;10.956;2023-07-13T13:46:35;98293.47;;;31.72;33.94
20156;BME280;10238;49.556;10.956;2023-07-13T13:49:24;98287.47;;;31.46;34.98
20156;BME280;10238;49.556;10.956;2023-07-13T13:52:17;98285.34;;;31.62;35.69
20156;BME280;10238;49.556;10.956;2023-07-13T13:55:12;98282.75;;;31.99;34.20
20156;BME280;10238;49.556;10.956;2023-07-13T13:58:01;98282.88;;;32.31;34.90
20156;BME280;10238;49.556;10.956;2023-07-13T14:00:50;98275.94;;;32.15;34.00
20156;BME280;10238;49.556;10.956;2023-07-13T14:03:39;98290.09;;;31.80;34.26
20156;BME280;10238;49.556;10.956;2023-07-13T14:06:27;98287.19;;;31.71;34.83
20156;BME280;10238;49.556;10.956;2023-07-13T14:09:17;98283.47;;;32.09;33.83
20156;BME280;10238;49.556;10.956;2023-07-13T14:12:10;98288.56;;;31.97;34.15
20156;BME280;10238;49.556;10.956;2023-07-13T14:14:59;98289.19;;;31.66;33.75
20156;BME280;10238;49.556;10.956;2023-07-13T14:17:47;98283.59;;;31.47;34.37
20156;BME280;10238;49.556;10.956;2023-07-13T14:20:37;98293.06;;;31.36;34.35
20156;BME280;10238;49.556;10.956;2023-07-13T14:23:25;98285.63;;;31.37;34.62
20156;BME280;10238;49.556;10.956;2023-07-13T14:26:16;98290.38;;;31.55;34.02
20156;BME280;10238;49.556;10.956;2023-07-13T14:29:10;98287.78;;;31.68;34.18
20156;BME280;10238;49.556;10.956;2023-07-13T14:31:59;98280.94;;;31.89;34.76
20156;BME280;10238;49.556;10.956;2023-07-13T14:34:47;98293.16;;;31.78;33.90
20156;BME280;10238;49.556;10.956;2023-07-13T14:37:36;98291.03;;;31.47;33.96
20156;BME280;10238;49.556;10.956;2023-07-13T14:40:28;98287.09;;;31.24;34.77
20156;BME280;10238;49.556;10.956;2023-07-13T14:43:18;98286.16;;;31.05;34.05
20156;BME280;10238;49.556;10.956;2023-07-13T14:46:07;98287.22;;;30.75;34.79
20156;BME280;10238;49.556;10.956;2023-07-13T14:49:06;98288.59;;;30.78;34.59
20156;BME280;10238;49.556;10.956;2023-07-13T14:51:55;98288.88;;;30.66;34.98
20156;BME280;10238;49.556;10.956;2023-07-13T14:54:44;98281.50;;;30.62;34.42